createdAt,value
2022-12-18T00:02:29.080Z,101879.00
2022-12-18T00:05:30.518Z,101876.53
2022-12-18T00:08:32.272Z,101880.06
2022-12-18T00:11:34.301Z,101875.66
2022-12-18T00:14:35.916Z,101874.91
2022-12-18T00:17:37.712Z,101875.66
2022-12-18T00:20:40.599Z,101880.22
2022-12-18T00:23:44.537Z,101878.63
2022-12-18T00:26:45.996Z,101887.13
2022-12-18T00:29:49.220Z,101883.66
2022-12-18T00:32:50.922Z,101879.53
2022-12-18T00:35:52.403Z,101873.59
2022-12-18T00:38:55.393Z,101879.16
2022-12-18T00:42:15.268Z,101883.97
2022-12-18T00:45:16.792Z,101885.00
2022-12-18T00:48:18.194Z,101876.53
2022-12-18T00:51:19.599Z,101878.09
2022-12-18T00:54:21.121Z,101889.16
2022-12-18T00:57:22.535Z,101894.03
2022-12-18T01:00:24.065Z,101888.72
2022-12-18T01:03:25.473Z,101886.25
2022-12-18T01:06:26.905Z,101891.75
2022-12-18T01:09:28.303Z,101889.44
2022-12-18T01:12:29.744Z,101879.59
2022-12-18T01:15:31.161Z,101883.34
2022-12-18T01:18:32.724Z,101885.38
2022-12-18T01:21:34.377Z,101892.63
2022-12-18T01:24:38.879Z,101883.25
2022-12-18T01:27:40.370Z,101875.53
2022-12-18T01:30:41.778Z,101880.22
2022-12-18T01:33:44.200Z,101880.25
2022-12-18T01:36:45.684Z,101889.09
2022-12-18T01:39:47.113Z,101884.75
2022-12-18T01:42:55.247Z,101877.25
2022-12-18T01:46:00.567Z,101875.09
2022-12-18T01:49:02.672Z,101857.94
2022-12-18T01:52:04.245Z,101864.84
2022-12-18T01:55:07.443Z,101872.44
2022-12-18T01:58:08.882Z,101882.38
2022-12-18T02:01:10.960Z,101882.53
2022-12-18T02:04:30.826Z,101881.91
2022-12-18T02:08:09.392Z,101883.06
2022-12-18T02:11:38.539Z,101874.03
2022-12-18T02:14:58.180Z,101870.69
2022-12-18T02:18:08.249Z,101872.34
2022-12-18T02:21:18.420Z,101881.81
2022-12-18T02:24:41.181Z,101885.91
2022-12-18T02:27:46.710Z,101889.41
2022-12-18T02:30:52.820Z,101893.44
2022-12-18T02:33:59.292Z,101894.03
2022-12-18T02:37:05.425Z,101890.88
2022-12-18T02:40:10.195Z,101906.06
2022-12-18T02:43:15.969Z,101895.91
2022-12-18T02:46:32.978Z,101888.53
2022-12-18T02:50:16.838Z,101884.03
2022-12-18T02:53:42.938Z,101866.53
2022-12-18T02:56:54.693Z,101872.44
2022-12-18T03:00:15.319Z,101882.09
2022-12-18T03:03:31.041Z,101885.19
2022-12-18T03:06:44.456Z,101874.19
2022-12-18T03:09:50.932Z,101879.84
2022-12-18T03:13:04.853Z,101879.69
2022-12-18T03:16:11.371Z,101877.47
2022-12-18T03:19:17.859Z,101885.97
2022-12-18T03:22:19.765Z,101871.63
2022-12-18T03:25:27.403Z,101870.13
2022-12-18T03:28:33.285Z,101860.06
2022-12-18T03:31:43.495Z,101863.09
2022-12-18T03:34:48.521Z,101886.78
2022-12-18T03:37:51.425Z,101889.84
2022-12-18T03:41:11.550Z,101886.38
2022-12-18T03:44:38.195Z,101885.34
2022-12-18T03:48:00.680Z,101878.25
2022-12-18T03:51:15.697Z,101883.38
2022-12-18T03:54:18.859Z,101880.66
2022-12-18T03:57:31.067Z,101880.63
2022-12-18T04:00:34.785Z,101893.06
2022-12-18T04:03:44.847Z,101881.03
2022-12-18T04:06:49.209Z,101876.28
2022-12-18T04:09:57.081Z,101879.16
2022-12-18T04:13:00.130Z,101877.13
2022-12-18T04:16:02.572Z,101881.47
2022-12-18T04:19:04.620Z,101888.69
2022-12-18T04:22:12.736Z,101871.41
2022-12-18T04:25:19.292Z,101872.69
2022-12-18T04:28:40.139Z,101869.75
2022-12-18T04:31:41.993Z,101870.75
2022-12-18T04:34:44.503Z,101882.97
2022-12-18T04:37:46.539Z,101867.50
2022-12-18T04:40:48.003Z,101869.25
2022-12-18T04:43:56.847Z,101870.75
2022-12-18T04:46:58.252Z,101876.03
2022-12-18T04:49:59.693Z,101870.88
2022-12-18T04:53:01.107Z,101863.72
2022-12-18T04:56:14.046Z,101868.69
2022-12-18T04:59:15.558Z,101864.44
2022-12-18T05:02:17.050Z,101873.19
2022-12-18T05:05:19.188Z,101879.47
2022-12-18T05:08:20.602Z,101874.75
2022-12-18T05:11:22.691Z,101886.41
2022-12-18T05:14:24.117Z,101895.50
2022-12-18T05:17:25.593Z,101903.09
2022-12-18T05:20:27.992Z,101888.81
2022-12-18T05:23:30.070Z,101891.75
2022-12-18T05:26:32.217Z,101901.38
2022-12-18T05:29:33.639Z,101910.94
2022-12-18T05:32:35.312Z,101912.41
2022-12-18T05:35:36.733Z,101908.06
2022-12-18T05:38:39.760Z,101902.69
2022-12-18T05:41:41.171Z,101889.56
2022-12-18T05:44:44.524Z,101881.56
2022-12-18T05:47:45.924Z,101878.31
2022-12-18T05:50:49.184Z,101873.00
2022-12-18T05:53:50.624Z,101863.25
2022-12-18T05:56:52.064Z,101872.81
2022-12-18T05:59:53.543Z,101869.34
2022-12-18T06:02:55.227Z,101869.69
2022-12-18T06:05:56.784Z,101876.13
2022-12-18T06:08:58.570Z,101879.59
2022-12-18T06:12:00.257Z,101874.03
2022-12-18T06:15:02.073Z,101898.38
2022-12-18T06:18:03.601Z,101904.28
2022-12-18T06:21:05.387Z,101907.13
2022-12-18T06:24:07.149Z,101902.69
2022-12-18T06:27:08.552Z,101913.41
2022-12-18T06:30:10.802Z,101910.69
2022-12-18T06:33:12.885Z,101920.47
2022-12-18T06:36:15.000Z,101917.22
2022-12-18T06:39:16.581Z,101919.88
2022-12-18T06:42:18.183Z,101914.41
2022-12-18T06:45:19.670Z,101912.63
2022-12-18T06:48:21.105Z,101916.34
2022-12-18T06:51:24.637Z,101918.19
2022-12-18T06:54:26.051Z,101926.88
2022-12-18T06:57:27.475Z,101929.72
2022-12-18T07:00:28.984Z,101931.81
2022-12-18T07:03:30.800Z,101929.25
2022-12-18T07:06:32.228Z,101934.59
2022-12-18T07:09:33.815Z,101932.97
2022-12-18T07:12:36.036Z,101939.72
2022-12-18T07:15:37.721Z,101943.88
2022-12-18T07:18:39.164Z,101946.53
2022-12-18T07:21:40.593Z,101943.25
2022-12-18T07:24:42.059Z,101951.38
2022-12-18T07:27:43.443Z,101947.47
2022-12-18T07:30:45.287Z,101952.69
2022-12-18T07:33:47.097Z,101953.59
2022-12-18T07:36:48.669Z,101957.53
2022-12-18T07:39:50.088Z,101967.50
2022-12-18T07:42:53.059Z,101972.94
2022-12-18T07:45:54.533Z,101964.16
2022-12-18T07:48:56.006Z,101965.59
2022-12-18T07:51:58.668Z,101971.38
2022-12-18T07:55:00.060Z,101961.09
2022-12-18T07:58:03.157Z,101969.00
2022-12-18T08:01:10.071Z,101978.28
2022-12-18T08:04:13.165Z,101972.81
2022-12-18T08:07:14.578Z,101969.47
2022-12-18T08:10:16.220Z,101969.59
2022-12-18T08:13:17.662Z,101970.13
2022-12-18T08:16:19.723Z,101967.09
2022-12-18T08:19:22.224Z,101966.47
2022-12-18T08:22:23.627Z,101968.31
2022-12-18T08:25:25.073Z,101964.25
2022-12-18T08:28:27.026Z,101966.19
2022-12-18T08:31:30.261Z,101961.94
2022-12-18T08:34:31.921Z,101964.63
2022-12-18T08:37:33.458Z,101967.09
2022-12-18T08:40:35.119Z,101960.97
2022-12-18T08:44:02.865Z,101958.03
2022-12-18T08:47:05.348Z,101942.88
2022-12-18T08:50:07.055Z,101947.41
2022-12-18T08:53:08.461Z,101950.34
2022-12-18T08:56:10.035Z,101947.91
2022-12-18T08:59:18.830Z,101933.53
2022-12-18T09:02:21.283Z,101926.59
2022-12-18T09:05:23.020Z,101923.03
2022-12-18T09:08:24.703Z,101904.78
2022-12-18T09:11:28.652Z,101903.56
2022-12-18T09:14:30.650Z,101903.00
2022-12-18T09:17:32.146Z,101906.94
2022-12-18T09:20:33.593Z,101911.94
2022-12-18T09:23:34.981Z,101917.78
2022-12-18T09:26:37.248Z,101903.66
2022-12-18T09:29:38.753Z,101898.66
2022-12-18T09:32:40.349Z,101903.19
2022-12-18T09:35:43.848Z,101910.81
2022-12-18T09:38:45.976Z,101930.25
2022-12-18T09:41:56.781Z,101938.38
2022-12-18T09:45:00.230Z,101928.22
2022-12-18T09:48:02.598Z,101940.38
2022-12-18T09:51:20.014Z,101940.44
2022-12-18T09:54:26.900Z,101961.66
2022-12-18T09:57:32.469Z,101977.69
2022-12-18T10:00:34.084Z,101977.69
2022-12-18T10:03:35.576Z,101979.41
2022-12-18T10:06:47.896Z,101979.16
2022-12-18T10:10:36.563Z,101961.28
2022-12-18T10:13:53.864Z,101959.44
2022-12-18T10:17:19.614Z,101943.88
2022-12-18T10:20:38.469Z,101944.22
2022-12-18T10:23:53.960Z,101952.34
2022-12-18T10:27:10.392Z,101952.94
2022-12-18T10:30:21.991Z,101961.69
2022-12-18T10:33:25.579Z,101962.50
2022-12-18T10:36:27.189Z,101954.31
2022-12-18T10:39:28.640Z,101956.41
2022-12-18T10:42:30.034Z,101944.63
2022-12-18T10:45:31.486Z,101937.97
2022-12-18T10:48:35.164Z,101928.72
2022-12-18T10:51:38.502Z,101928.13
2022-12-18T10:54:40.024Z,101913.22
2022-12-18T10:57:42.406Z,101922.50
2022-12-18T11:00:43.937Z,101926.69
2022-12-18T11:03:48.162Z,101921.44
2022-12-18T11:06:56.418Z,101926.59
2022-12-18T11:10:02.335Z,101932.63
2022-12-18T11:13:12.649Z,101931.94
2022-12-18T11:16:20.888Z,101927.09
2022-12-18T11:19:26.363Z,101941.53
2022-12-18T11:22:39.122Z,101932.38
2022-12-18T11:25:50.492Z,101930.09
2022-12-18T11:29:08.083Z,101935.06
2022-12-18T11:32:38.209Z,101935.91
2022-12-18T11:35:53.253Z,101932.03
2022-12-18T11:38:56.413Z,101925.66
2022-12-18T11:42:10.442Z,101915.94
2022-12-18T11:45:12.078Z,101927.94
2022-12-18T11:48:40.265Z,101923.09
2022-12-18T11:52:22.305Z,101908.84
2022-12-18T11:55:40.760Z,101901.00
2022-12-18T11:59:01.936Z,101887.16
2022-12-18T12:02:39.298Z,101885.09
2022-12-18T12:06:04.314Z,101889.53
2022-12-18T12:09:42.684Z,101896.25
2022-12-18T12:13:11.519Z,101897.28
2022-12-18T12:16:24.996Z,101892.00
2022-12-18T12:19:44.699Z,101897.66
2022-12-18T12:23:09.699Z,101898.47
2022-12-18T12:26:17.369Z,101882.84
2022-12-18T12:29:42.024Z,101854.38
2022-12-18T12:33:00.910Z,101864.00
2022-12-18T12:36:11.331Z,101873.22
2022-12-18T12:39:21.383Z,101881.91
2022-12-18T12:42:56.841Z,101880.25
2022-12-18T12:46:05.588Z,101876.47
2022-12-18T12:49:15.097Z,101872.94
2022-12-18T12:52:36.641Z,101873.03
2022-12-18T12:55:40.460Z,101858.34
2022-12-18T12:58:50.899Z,101859.25
2022-12-18T13:02:24.797Z,101862.75
2022-12-18T13:05:55.776Z,101857.19
2022-12-18T13:09:01.796Z,101841.06
2022-12-18T13:12:23.962Z,101840.69
2022-12-18T13:15:38.571Z,101832.94
2022-12-18T13:18:50.991Z,101833.72
2022-12-18T13:21:57.255Z,101828.78
2022-12-18T13:24:58.705Z,101820.81
2022-12-18T13:28:12.412Z,101814.13
2022-12-18T13:31:14.473Z,101816.97
2022-12-18T13:34:30.791Z,101805.50
2022-12-18T13:37:32.521Z,101816.94
2022-12-18T13:40:39.956Z,101809.84
2022-12-18T13:43:46.017Z,101809.16
2022-12-18T13:46:50.778Z,101802.22
2022-12-18T13:49:52.517Z,101799.66
2022-12-18T13:52:54.863Z,101798.47
2022-12-18T13:55:56.318Z,101802.75
2022-12-18T13:59:18.294Z,101800.31
2022-12-18T14:02:25.892Z,101806.06
2022-12-18T14:05:37.104Z,101804.38
2022-12-18T14:08:42.711Z,101808.50
2022-12-18T14:11:50.622Z,101810.72
2022-12-18T14:14:55.153Z,101817.47
2022-12-18T14:18:26.223Z,101824.19
2022-12-18T14:21:33.368Z,101814.56
2022-12-18T14:24:34.786Z,101807.84
2022-12-18T14:27:39.097Z,101810.19
2022-12-18T14:30:45.753Z,101815.16
2022-12-18T14:33:47.538Z,101810.97
2022-12-18T14:36:56.790Z,101805.84
2022-12-18T14:40:07.093Z,101810.19
2022-12-18T14:43:12.318Z,101807.53
2022-12-18T14:46:35.911Z,101809.91
2022-12-18T14:49:38.031Z,101811.38
2022-12-18T14:52:39.490Z,101809.53
2022-12-18T14:55:47.692Z,101811.34
2022-12-18T14:59:22.345Z,101818.72
2022-12-18T15:02:29.887Z,101810.50
2022-12-18T15:05:32.508Z,101796.03
2022-12-18T15:08:38.166Z,101786.72
2022-12-18T15:11:42.613Z,101789.09
2022-12-18T15:14:44.055Z,101800.97
2022-12-18T15:17:45.485Z,101787.63
2022-12-18T15:20:50.411Z,101774.78
2022-12-18T15:23:53.062Z,101777.38
2022-12-18T15:26:54.476Z,101770.41
2022-12-18T15:30:11.026Z,101780.34
2022-12-18T15:33:27.559Z,101784.63
2022-12-18T15:36:30.348Z,101775.69
2022-12-18T15:39:31.773Z,101770.44
2022-12-18T15:42:51.860Z,101766.81
2022-12-18T15:45:53.317Z,101770.06
2022-12-18T15:49:01.429Z,101775.75
2022-12-18T15:52:04.248Z,101773.19
2022-12-18T15:55:29.809Z,101775.94
2022-12-18T15:58:31.201Z,101772.47
2022-12-18T16:01:32.700Z,101775.84
2022-12-18T16:04:34.347Z,101770.75
2022-12-18T16:07:35.750Z,101769.22
2022-12-18T16:10:37.338Z,101771.09
2022-12-18T16:13:39.203Z,101774.53
2022-12-18T16:16:40.889Z,101769.22
2022-12-18T16:19:42.385Z,101784.75
2022-12-18T16:22:46.747Z,101780.78
2022-12-18T16:25:48.535Z,101772.88
2022-12-18T16:28:49.936Z,101761.72
2022-12-18T16:31:52.413Z,101763.56
2022-12-18T16:34:53.931Z,101764.88
2022-12-18T16:37:55.368Z,101768.06
2022-12-18T16:41:15.498Z,101754.28
2022-12-18T16:44:17.238Z,101747.97
2022-12-18T16:47:19.100Z,101750.56
2022-12-18T16:50:20.505Z,101750.66
2022-12-18T16:53:21.904Z,101745.47
2022-12-18T16:56:23.636Z,101750.13
2022-12-18T16:59:26.627Z,101744.19
2022-12-18T17:02:28.572Z,101735.91
2022-12-18T17:05:30.069Z,101743.44
2022-12-18T17:08:32.144Z,101742.66
2022-12-18T17:11:35.567Z,101743.53
2022-12-18T17:14:37.277Z,101740.56
2022-12-18T17:17:38.661Z,101735.84
2022-12-18T17:20:40.127Z,101723.72
2022-12-18T17:23:43.607Z,101742.69
2022-12-18T17:26:45.644Z,101754.66
2022-12-18T17:29:49.223Z,101756.19
2022-12-18T17:32:50.704Z,101743.03
2022-12-18T17:35:52.498Z,101735.13
2022-12-18T17:38:56.027Z,101738.69
2022-12-18T17:41:57.452Z,101741.09
2022-12-18T17:44:58.880Z,101743.63
2022-12-18T17:48:00.319Z,101731.81
2022-12-18T17:51:07.162Z,101734.25
2022-12-18T17:54:09.361Z,101729.88
2022-12-18T17:57:10.814Z,101724.13
2022-12-18T18:00:12.802Z,101717.63
2022-12-18T18:03:15.478Z,101716.59
2022-12-18T18:06:17.525Z,101714.59
2022-12-18T18:09:18.939Z,101719.09
2022-12-18T18:12:39.327Z,101705.78
2022-12-18T18:15:41.181Z,101722.34
2022-12-18T18:18:42.602Z,101721.31
2022-12-18T18:21:46.102Z,101709.69
2022-12-18T18:24:48.125Z,101700.94
2022-12-18T18:27:49.566Z,101700.06
2022-12-18T18:30:51.129Z,101720.22
2022-12-18T18:33:53.640Z,101711.28
2022-12-18T18:36:55.332Z,101719.88
2022-12-18T18:39:56.856Z,101719.53
2022-12-18T18:42:58.402Z,101718.97
2022-12-18T18:46:05.220Z,101728.09
2022-12-18T18:49:06.793Z,101719.75
2022-12-18T18:52:08.288Z,101721.31
2022-12-18T18:55:20.480Z,101718.00
2022-12-18T18:58:27.188Z,101710.00
2022-12-18T19:01:28.688Z,101704.91
2022-12-18T19:04:30.127Z,101703.91
2022-12-18T19:07:31.617Z,101698.84
2022-12-18T19:10:33.079Z,101697.22
2022-12-18T19:13:34.493Z,101691.03
2022-12-18T19:16:36.787Z,101684.97
2022-12-18T19:19:38.284Z,101684.88
2022-12-18T19:22:39.802Z,101682.47
2022-12-18T19:25:42.262Z,101666.28
2022-12-18T19:28:45.180Z,101663.13
2022-12-18T19:31:46.686Z,101667.03
2022-12-18T19:34:48.380Z,101665.34
2022-12-18T19:37:50.739Z,101674.34
2022-12-18T19:40:52.411Z,101669.69
2022-12-18T19:43:53.912Z,101664.31
2022-12-18T19:46:55.320Z,101668.78
2022-12-18T19:49:56.785Z,101678.50
2022-12-18T19:52:58.545Z,101673.22
2022-12-18T19:56:08.849Z,101678.72
2022-12-18T19:59:10.244Z,101670.88
2022-12-18T20:02:14.832Z,101668.94
2022-12-18T20:05:16.676Z,101660.97
2022-12-18T20:08:18.166Z,101655.84
2022-12-18T20:11:19.830Z,101648.56
2022-12-18T20:14:23.359Z,101640.66
2022-12-18T20:17:25.313Z,101636.22
2022-12-18T20:20:26.971Z,101639.88
2022-12-18T20:23:28.675Z,101643.13
2022-12-18T20:26:31.202Z,101647.47
2022-12-18T20:29:32.674Z,101671.19
2022-12-18T20:32:37.073Z,101668.44
2022-12-18T20:35:38.913Z,101652.16
2022-12-18T20:38:41.550Z,101630.53
2022-12-18T20:41:44.235Z,101640.00
2022-12-18T20:44:45.736Z,101640.66
2022-12-18T20:47:47.128Z,101672.50
2022-12-18T20:50:58.104Z,101638.13
2022-12-18T20:54:01.769Z,101640.66
2022-12-18T20:57:03.263Z,101640.75
2022-12-18T21:00:05.824Z,101632.13
2022-12-18T21:03:07.377Z,101637.13
2022-12-18T21:06:10.324Z,101634.66
2022-12-18T21:09:11.714Z,101653.06
2022-12-18T21:12:40.664Z,101656.00
2022-12-18T21:15:53.286Z,101641.91
2022-12-18T21:18:55.617Z,101655.50
2022-12-18T21:21:57.798Z,101668.50
2022-12-18T21:24:59.212Z,101649.41
2022-12-18T21:28:00.648Z,101673.75
2022-12-18T21:31:02.278Z,101641.59
2022-12-18T21:34:05.570Z,101636.53
2022-12-18T21:37:07.028Z,101622.66
2022-12-18T21:40:09.439Z,101630.41
2022-12-18T21:43:29.797Z,101629.72
2022-12-18T21:46:31.301Z,101634.75
2022-12-18T21:49:33.430Z,101651.06
2022-12-18T21:52:34.976Z,101646.13
2022-12-18T21:55:36.396Z,101647.03
2022-12-18T21:58:37.807Z,101642.00
2022-12-18T22:01:39.289Z,101628.31
2022-12-18T22:04:42.187Z,101618.84
2022-12-18T22:07:43.836Z,101625.44
2022-12-18T22:10:45.217Z,101631.56
2022-12-18T22:13:46.638Z,101654.25
2022-12-18T22:16:48.406Z,101661.72
2022-12-18T22:19:50.757Z,101648.84
2022-12-18T22:22:53.011Z,101644.72
2022-12-18T22:25:54.452Z,101643.06
2022-12-18T22:29:14.580Z,101643.94
2022-12-18T22:32:17.031Z,101657.94
2022-12-18T22:35:32.103Z,101645.16
2022-12-18T22:38:33.865Z,101634.88
2022-12-18T22:41:35.599Z,101647.00
2022-12-18T22:44:36.986Z,101671.97
2022-12-18T22:47:38.922Z,101660.97
2022-12-18T22:50:40.583Z,101668.78
2022-12-18T22:53:43.216Z,101662.00
2022-12-18T22:56:46.675Z,101668.88
2022-12-18T22:59:48.086Z,101673.50
2022-12-18T23:02:51.308Z,101661.50
2022-12-18T23:06:03.587Z,101662.81
2022-12-18T23:09:05.453Z,101664.59
2022-12-18T23:12:07.553Z,101651.16
2022-12-18T23:15:09.465Z,101649.59
2022-12-18T23:18:11.490Z,101665.00
2022-12-18T23:21:19.473Z,101651.03
2022-12-18T23:24:21.536Z,101650.09
2022-12-18T23:27:22.935Z,101637.06
2022-12-18T23:30:24.404Z,101641.31
2022-12-18T23:33:25.882Z,101636.25
2022-12-18T23:36:28.673Z,101634.63
2022-12-18T23:39:31.991Z,101634.75
2022-12-18T23:42:33.379Z,101641.28
2022-12-18T23:45:37.946Z,101637.06
2022-12-18T23:48:39.844Z,101630.03
2022-12-18T23:51:41.249Z,101617.13
2022-12-18T23:54:44.249Z,101616.09
2022-12-18T23:57:45.632Z,101620.38
